createdAt,value
2023-03-08T00:01:44.624Z,99.90
2023-03-08T00:04:12.985Z,99.90
2023-03-08T00:06:42.652Z,99.90
2023-03-08T00:09:11.161Z,99.90
2023-03-08T00:11:39.517Z,99.90
2023-03-08T00:14:07.869Z,99.90
2023-03-08T00:16:36.141Z,99.90
2023-03-08T00:19:04.374Z,99.90
2023-03-08T00:21:32.752Z,99.90
2023-03-08T00:24:02.380Z,99.90
2023-03-08T00:26:30.596Z,99.90
2023-03-08T00:28:58.904Z,99.90
2023-03-08T00:31:27.186Z,99.90
2023-03-08T00:33:55.908Z,99.90
2023-03-08T00:36:24.151Z,99.90
2023-03-08T00:38:52.692Z,99.90
2023-03-08T00:41:22.396Z,99.90
2023-03-08T00:43:50.633Z,99.90
2023-03-08T00:46:19.011Z,99.90
2023-03-08T00:48:47.406Z,99.90
2023-03-08T00:51:17.070Z,99.90
2023-03-08T00:53:45.381Z,99.90
2023-03-08T00:56:13.698Z,99.90
2023-03-08T00:58:43.374Z,99.90
2023-03-08T01:01:15.221Z,99.90
2023-03-08T01:03:43.588Z,99.90
2023-03-08T01:06:13.253Z,99.90
2023-03-08T01:08:42.323Z,99.90
2023-03-08T01:11:18.969Z,99.90
2023-03-08T01:13:48.885Z,99.90
2023-03-08T01:16:18.764Z,99.90
2023-03-08T01:18:47.241Z,99.90
2023-03-08T01:21:15.548Z,99.90
2023-03-08T01:23:43.855Z,99.90
2023-03-08T01:26:13.599Z,99.90
2023-03-08T01:28:41.882Z,99.90
2023-03-08T01:31:13.590Z,99.90
2023-03-08T01:33:41.932Z,99.90
2023-03-08T01:36:11.403Z,99.90
2023-03-08T01:38:39.759Z,99.90
2023-03-08T01:41:08.603Z,99.90
2023-03-08T01:43:38.054Z,99.90
2023-03-08T01:46:09.765Z,99.90
2023-03-08T01:48:40.240Z,99.90
2023-03-08T01:51:09.020Z,99.90
2023-03-08T01:53:37.832Z,99.90
2023-03-08T01:56:07.024Z,99.90
2023-03-08T01:58:35.346Z,99.90
2023-03-08T02:01:03.658Z,99.90
2023-03-08T02:03:31.975Z,99.90
2023-03-08T02:06:01.626Z,99.90
2023-03-08T02:08:29.862Z,99.90
2023-03-08T02:10:58.359Z,99.90
2023-03-08T02:13:26.582Z,99.90
2023-03-08T02:15:55.200Z,99.90
2023-03-08T02:18:23.701Z,99.90
2023-03-08T02:20:51.943Z,99.90
2023-03-08T02:23:22.690Z,99.90
2023-03-08T02:25:52.805Z,99.90
2023-03-08T02:28:21.832Z,99.90
2023-03-08T02:30:50.243Z,99.90
2023-03-08T02:33:18.779Z,99.90
2023-03-08T02:35:47.031Z,99.90
2023-03-08T02:38:16.547Z,99.90
2023-03-08T02:40:46.313Z,99.90
2023-03-08T02:43:14.554Z,99.90
2023-03-08T02:45:42.835Z,99.90
2023-03-08T02:48:11.054Z,99.90
2023-03-08T02:50:39.294Z,99.90
2023-03-08T02:53:07.620Z,99.90
2023-03-08T02:55:36.521Z,99.90
2023-03-08T02:58:06.454Z,99.90
2023-03-08T03:00:34.702Z,99.90
2023-03-08T03:03:02.950Z,99.90
2023-03-08T03:05:31.242Z,99.90
2023-03-08T03:07:59.770Z,99.90
2023-03-08T03:10:28.079Z,99.90
2023-03-08T03:12:56.345Z,99.90
2023-03-08T03:15:26.032Z,99.90
2023-03-08T03:17:54.273Z,99.90
2023-03-08T03:20:22.629Z,99.90
2023-03-08T03:22:50.894Z,99.90
2023-03-08T03:25:19.486Z,99.90
2023-03-08T03:27:47.751Z,99.90
2023-03-08T03:30:16.237Z,99.90
2023-03-08T03:32:45.906Z,99.90
2023-03-08T03:35:14.233Z,99.90
2023-03-08T03:37:42.458Z,99.90
2023-03-08T03:40:12.735Z,99.90
2023-03-08T03:42:41.020Z,99.90
2023-03-08T03:45:10.160Z,99.90
2023-03-08T03:47:38.444Z,99.90
2023-03-08T03:50:09.087Z,99.90
2023-03-08T03:52:37.372Z,99.90
2023-03-08T03:55:06.588Z,99.90
2023-03-08T03:57:34.830Z,99.90
2023-03-08T04:00:03.774Z,99.90
2023-03-08T04:02:32.056Z,99.90
2023-03-08T04:05:00.364Z,99.90
2023-03-08T04:07:30.069Z,99.90
2023-03-08T04:09:58.426Z,99.90
2023-03-08T04:12:26.722Z,99.90
2023-03-08T04:14:54.953Z,99.90
2023-03-08T04:17:23.256Z,99.90
2023-03-08T04:19:51.534Z,99.90
2023-03-08T04:22:19.805Z,99.90
2023-03-08T04:24:49.456Z,99.90
2023-03-08T04:27:17.736Z,99.90
2023-03-08T04:29:46.143Z,99.90
2023-03-08T04:32:14.409Z,99.90
2023-03-08T04:34:43.120Z,99.90
2023-03-08T04:37:11.524Z,99.90
2023-03-08T04:39:39.774Z,99.90
2023-03-08T04:42:09.749Z,99.90
2023-03-08T04:44:37.990Z,99.90
2023-03-08T04:47:06.551Z,99.90
2023-03-08T04:49:34.822Z,99.90
2023-03-08T04:52:03.057Z,99.90
2023-03-08T04:54:31.340Z,99.90
2023-03-08T04:56:59.595Z,99.90
2023-03-08T04:59:29.239Z,99.90
2023-03-08T05:01:57.561Z,99.90
2023-03-08T05:04:25.869Z,99.90
2023-03-08T05:06:54.122Z,99.90
2023-03-08T05:09:22.424Z,99.90
2023-03-08T05:11:50.677Z,99.90
2023-03-08T05:14:19.018Z,99.90
2023-03-08T05:16:48.652Z,99.90
2023-03-08T05:19:16.933Z,99.90
2023-03-08T05:21:45.166Z,99.90
2023-03-08T05:24:13.436Z,99.90
2023-03-08T05:26:41.691Z,99.90
2023-03-08T05:29:09.926Z,99.90
2023-03-08T05:31:40.123Z,99.90
2023-03-08T05:34:11.406Z,99.90
2023-03-08T05:36:39.690Z,99.90
2023-03-08T05:39:07.969Z,99.90
2023-03-08T05:41:36.301Z,99.90
2023-03-08T05:44:04.636Z,99.90
2023-03-08T05:46:32.899Z,99.90
2023-03-08T05:49:01.233Z,99.90
2023-03-08T05:51:31.004Z,99.90
2023-03-08T05:53:59.265Z,99.90
2023-03-08T05:56:27.703Z,99.90
2023-03-08T05:58:56.066Z,99.90
2023-03-08T06:01:25.183Z,99.90
2023-03-08T06:03:54.806Z,99.90
2023-03-08T06:06:23.532Z,99.90
2023-03-08T06:08:54.096Z,99.90
2023-03-08T06:11:22.479Z,99.90
2023-03-08T06:13:50.726Z,99.90
2023-03-08T06:16:19.150Z,99.90
2023-03-08T06:18:47.445Z,99.90
2023-03-08T06:21:16.217Z,99.90
2023-03-08T06:23:45.564Z,99.90
2023-03-08T06:26:15.376Z,99.80
2023-03-08T06:28:43.639Z,99.40
2023-03-08T06:31:12.971Z,99.20
2023-03-08T06:33:41.457Z,99.00
2023-03-08T06:36:10.862Z,98.50
2023-03-08T06:38:40.024Z,99.90
2023-03-08T06:41:08.643Z,98.20
2023-03-08T06:43:38.461Z,98.00
2023-03-08T06:46:07.001Z,98.00
2023-03-08T06:48:35.603Z,99.90
2023-03-08T06:51:03.896Z,97.00
2023-03-08T06:53:32.269Z,97.40
2023-03-08T06:56:03.102Z,96.60
2023-03-08T06:58:31.448Z,97.40
2023-03-08T07:01:01.235Z,96.00
2023-03-08T07:03:29.714Z,96.10
2023-03-08T07:06:00.295Z,94.70
2023-03-08T07:08:28.577Z,94.30
2023-03-08T07:10:58.363Z,94.70
2023-03-08T07:13:26.813Z,94.20
2023-03-08T07:15:55.257Z,94.70
2023-03-08T07:18:25.124Z,93.80
2023-03-08T07:20:54.111Z,93.70
2023-03-08T07:23:22.372Z,93.20
2023-03-08T07:25:50.681Z,93.10
2023-03-08T07:28:18.915Z,93.10
2023-03-08T07:30:48.569Z,92.10
2023-03-08T07:33:16.924Z,92.50
2023-03-08T07:35:46.584Z,91.70
2023-03-08T07:38:14.901Z,92.20
2023-03-08T07:40:43.293Z,90.60
2023-03-08T07:43:11.680Z,90.80
2023-03-08T07:45:40.549Z,90.50
2023-03-08T07:48:08.879Z,90.10
2023-03-08T07:50:37.158Z,88.90
2023-03-08T07:53:07.926Z,88.00
2023-03-08T07:55:37.917Z,88.80
2023-03-08T07:58:06.260Z,89.50
2023-03-08T08:00:34.554Z,88.60
2023-03-08T08:03:02.904Z,89.50
2023-03-08T08:05:31.360Z,89.00
2023-03-08T08:07:59.648Z,90.10
2023-03-08T08:10:29.330Z,89.10
2023-03-08T08:12:57.629Z,88.90
2023-03-08T08:15:26.452Z,88.20
2023-03-08T08:17:54.697Z,87.10
2023-03-08T08:20:22.966Z,90.70
2023-03-08T08:22:53.471Z,92.00
2023-03-08T08:25:21.885Z,92.50
2023-03-08T08:27:51.618Z,93.80
2023-03-08T08:30:20.075Z,94.80
2023-03-08T08:32:48.365Z,95.10
2023-03-08T08:35:16.608Z,95.10
2023-03-08T08:37:44.871Z,94.10
2023-03-08T08:40:13.869Z,93.60
2023-03-08T08:42:42.119Z,93.40
2023-03-08T08:45:12.654Z,93.10
2023-03-08T08:47:40.940Z,92.80
2023-03-08T08:50:12.384Z,92.90
2023-03-08T08:52:41.956Z,93.60
2023-03-08T08:55:10.955Z,92.10
2023-03-08T08:57:39.157Z,93.30
2023-03-08T09:00:10.124Z,93.50
2023-03-08T09:02:39.836Z,93.50
2023-03-08T09:05:08.517Z,93.30
2023-03-08T09:07:38.264Z,92.70
2023-03-08T09:10:08.998Z,92.80
2023-03-08T09:12:37.321Z,93.60
2023-03-08T09:15:06.215Z,93.10
2023-03-08T09:17:34.464Z,92.90
2023-03-08T09:20:04.937Z,93.20
2023-03-08T09:22:33.314Z,93.90
2023-03-08T09:25:01.544Z,93.30
2023-03-08T09:27:32.408Z,92.50
2023-03-08T09:30:00.742Z,92.70
2023-03-08T09:32:29.012Z,92.70
2023-03-08T09:34:57.325Z,93.20
2023-03-08T09:37:26.997Z,92.50
2023-03-08T09:39:55.644Z,92.30
2023-03-08T09:42:27.595Z,91.30
2023-03-08T09:45:19.020Z,92.90
2023-03-08T09:47:49.085Z,91.40
2023-03-08T09:50:34.634Z,93.00
2023-03-08T09:53:10.575Z,92.20
2023-03-08T09:55:43.133Z,92.10
2023-03-08T09:58:18.013Z,93.10
2023-03-08T10:00:46.808Z,92.00
2023-03-08T10:03:37.434Z,91.00
2023-03-08T10:06:07.349Z,92.30
2023-03-08T10:08:45.517Z,92.30
2023-03-08T10:11:16.836Z,88.30
2023-03-08T10:13:47.252Z,87.80
2023-03-08T10:16:18.394Z,87.60
2023-03-08T10:18:48.956Z,87.50
2023-03-08T10:21:19.013Z,87.30
2023-03-08T10:23:49.503Z,84.10
2023-03-08T10:26:18.678Z,83.90
2023-03-08T10:28:46.940Z,83.80
2023-03-08T10:31:23.452Z,83.30
2023-03-08T10:33:55.207Z,80.10
2023-03-08T10:36:26.279Z,76.90
2023-03-08T10:39:02.402Z,79.30
2023-03-08T10:41:33.048Z,77.80
2023-03-08T10:44:01.716Z,77.00
2023-03-08T10:46:33.043Z,75.70
2023-03-08T10:49:10.948Z,75.60
2023-03-08T10:51:39.252Z,74.40
2023-03-08T10:54:12.085Z,72.30
2023-03-08T10:56:44.892Z,71.70
2023-03-08T10:59:18.113Z,70.80
2023-03-08T11:01:50.287Z,70.40
2023-03-08T11:04:19.718Z,68.90
2023-03-08T11:06:48.002Z,67.10
2023-03-08T11:09:25.942Z,61.60
2023-03-08T11:11:54.205Z,60.70
2023-03-08T11:14:22.606Z,59.40
2023-03-08T11:17:07.340Z,57.40
2023-03-08T11:19:51.271Z,70.20
2023-03-08T11:22:26.764Z,56.10
2023-03-08T11:25:08.144Z,56.30
2023-03-08T11:27:47.659Z,56.20
2023-03-08T11:30:24.456Z,55.50
2023-03-08T11:33:07.459Z,53.60
2023-03-08T11:35:38.519Z,52.90
2023-03-08T11:38:08.346Z,52.00
2023-03-08T11:40:43.845Z,51.60
2023-03-08T11:43:22.202Z,51.00
2023-03-08T11:45:52.979Z,51.10
2023-03-08T11:48:35.319Z,62.50
2023-03-08T11:51:07.063Z,51.60
2023-03-08T11:53:43.991Z,51.10
2023-03-08T11:56:34.603Z,52.20
2023-03-08T11:59:05.026Z,52.50
2023-03-08T12:01:34.416Z,52.00
2023-03-08T12:04:05.347Z,52.50
2023-03-08T12:06:36.375Z,52.90
2023-03-08T12:09:08.138Z,51.20
2023-03-08T12:11:39.619Z,51.60
2023-03-08T12:14:16.615Z,49.00
2023-03-08T12:16:48.887Z,48.20
2023-03-08T12:19:25.083Z,45.80
2023-03-08T12:21:56.919Z,43.90
2023-03-08T12:24:35.056Z,43.00
2023-03-08T12:27:06.652Z,41.10
2023-03-08T12:29:37.242Z,41.40
2023-03-08T12:32:05.777Z,40.30
2023-03-08T12:34:40.183Z,38.30
2023-03-08T12:37:23.279Z,37.80
2023-03-08T12:39:59.697Z,37.60
2023-03-08T12:42:36.142Z,36.50
2023-03-08T12:45:09.607Z,35.30
2023-03-08T12:47:37.900Z,34.80
2023-03-08T12:50:11.934Z,33.80
2023-03-08T12:52:40.300Z,33.30
2023-03-08T12:55:17.961Z,32.70
2023-03-08T12:57:50.431Z,31.20
2023-03-08T13:00:29.821Z,30.00
2023-03-08T13:03:05.725Z,28.60
2023-03-08T13:05:35.659Z,28.10
2023-03-08T13:08:16.382Z,28.00
2023-03-08T13:10:58.366Z,26.80
2023-03-08T13:13:38.721Z,26.00
2023-03-08T13:16:09.410Z,25.70
2023-03-08T13:18:38.002Z,34.30
2023-03-08T13:21:15.757Z,24.80
2023-03-08T13:23:45.108Z,24.30
2023-03-08T13:26:49.317Z,24.50
2023-03-08T13:29:20.820Z,24.20
2023-03-08T13:31:49.126Z,24.00
2023-03-08T13:34:25.735Z,23.40
2023-03-08T13:36:53.972Z,22.30
2023-03-08T13:39:29.151Z,22.20
2023-03-08T13:42:07.230Z,21.70
2023-03-08T13:44:37.079Z,21.60
2023-03-08T13:47:20.828Z,20.90
2023-03-08T13:49:51.845Z,20.20
2023-03-08T13:52:21.515Z,19.90
2023-03-08T13:54:51.211Z,19.40
2023-03-08T13:57:21.394Z,18.80
2023-03-08T13:59:51.530Z,18.10
2023-03-08T14:02:21.709Z,17.60
2023-03-08T14:04:50.241Z,17.00
2023-03-08T14:07:23.507Z,16.30
2023-03-08T14:09:51.800Z,15.30
2023-03-08T14:12:21.491Z,15.10
2023-03-08T14:14:52.749Z,14.50
2023-03-08T14:17:22.819Z,14.50
2023-03-08T14:19:54.800Z,14.30
2023-03-08T14:22:37.743Z,14.00
2023-03-08T14:25:07.571Z,13.90
2023-03-08T14:27:39.068Z,13.20
2023-03-08T14:30:15.434Z,13.40
2023-03-08T14:32:44.383Z,13.10
2023-03-08T14:35:18.563Z,12.70
2023-03-08T14:37:48.267Z,20.40
2023-03-08T14:40:22.575Z,11.80
2023-03-08T14:42:52.957Z,12.20
2023-03-08T14:45:23.992Z,11.20
2023-03-08T14:47:52.852Z,11.70
2023-03-08T14:50:23.470Z,10.70
2023-03-08T14:52:52.992Z,10.70
2023-03-08T14:55:23.529Z,10.50
2023-03-08T14:57:52.788Z,10.30
2023-03-08T15:00:23.822Z,10.40
2023-03-08T15:02:52.152Z,10.00
2023-03-08T15:05:28.689Z,12.60
2023-03-08T15:07:57.459Z,14.30
2023-03-08T15:10:27.781Z,14.60
2023-03-08T15:12:56.098Z,16.30
2023-03-08T15:15:25.992Z,15.80
2023-03-08T15:17:54.334Z,15.70
2023-03-08T15:20:23.358Z,16.00
2023-03-08T15:22:53.495Z,16.50
2023-03-08T15:25:24.370Z,17.00
2023-03-08T15:27:52.979Z,18.20
2023-03-08T15:30:22.392Z,19.60
2023-03-08T15:32:52.099Z,20.40
2023-03-08T15:35:20.698Z,21.00
2023-03-08T15:37:49.034Z,21.60
2023-03-08T15:40:18.193Z,24.40
2023-03-08T15:42:46.579Z,24.90
2023-03-08T15:45:15.032Z,25.30
2023-03-08T15:47:43.332Z,24.30
2023-03-08T15:50:17.645Z,25.20
2023-03-08T15:52:46.021Z,24.10
2023-03-08T15:55:14.889Z,26.00
2023-03-08T15:57:43.244Z,24.80
2023-03-08T16:00:13.370Z,25.20
2023-03-08T16:02:41.664Z,24.70
2023-03-08T16:05:11.138Z,25.40
2023-03-08T16:07:40.987Z,26.40
2023-03-08T16:10:11.231Z,27.30
2023-03-08T16:12:39.457Z,28.00
2023-03-08T16:15:08.943Z,28.40
2023-03-08T16:17:37.379Z,29.50
2023-03-08T16:20:06.511Z,31.70
2023-03-08T16:22:35.086Z,33.80
2023-03-08T16:25:05.961Z,33.10
2023-03-08T16:27:36.245Z,33.30
2023-03-08T16:30:06.360Z,33.30
2023-03-08T16:32:35.319Z,33.60
2023-03-08T16:35:03.718Z,34.70
2023-03-08T16:37:31.953Z,35.60
2023-03-08T16:40:02.252Z,38.50
2023-03-08T16:42:31.959Z,43.30
2023-03-08T16:45:00.211Z,42.90
2023-03-08T16:47:32.222Z,41.70
2023-03-08T16:50:01.127Z,42.80
2023-03-08T16:52:29.462Z,42.10
2023-03-08T16:54:58.068Z,43.10
2023-03-08T16:57:27.180Z,43.60
2023-03-08T16:59:57.032Z,43.20
2023-03-08T17:02:25.487Z,45.00
2023-03-08T17:04:53.840Z,45.90
2023-03-08T17:07:22.115Z,56.90
2023-03-08T17:09:50.721Z,47.90
2023-03-08T17:12:19.617Z,53.20
2023-03-08T17:14:47.863Z,54.00
2023-03-08T17:17:17.639Z,62.10
2023-03-08T17:19:46.451Z,71.60
2023-03-08T17:22:14.738Z,82.00
2023-03-08T17:24:42.992Z,91.40
2023-03-08T17:27:11.242Z,91.30
2023-03-08T17:29:39.557Z,91.50
2023-03-08T17:32:08.390Z,95.20
2023-03-08T17:34:38.098Z,99.90
2023-03-08T17:37:11.414Z,99.90
2023-03-08T17:39:39.880Z,99.90
2023-03-08T17:42:08.528Z,99.90
2023-03-08T17:44:36.778Z,99.90
2023-03-08T17:47:05.320Z,99.90
2023-03-08T17:49:33.579Z,99.90
2023-03-08T17:52:03.336Z,99.90
2023-03-08T17:54:32.061Z,99.90
2023-03-08T17:57:00.304Z,99.90
2023-03-08T17:59:28.559Z,99.90
2023-03-08T18:01:56.909Z,99.90
2023-03-08T18:04:25.292Z,99.90
2023-03-08T18:06:53.644Z,99.90
2023-03-08T18:09:24.100Z,99.90
2023-03-08T18:11:52.494Z,99.90
2023-03-08T18:14:28.432Z,99.90
2023-03-08T18:17:02.635Z,99.90
2023-03-08T18:19:30.904Z,99.90
2023-03-08T18:21:59.452Z,99.90
2023-03-08T18:24:29.290Z,99.90
2023-03-08T18:26:58.218Z,99.90
2023-03-08T18:29:26.549Z,99.90
2023-03-08T18:31:55.034Z,99.90
2023-03-08T18:34:23.432Z,99.90
2023-03-08T18:36:51.898Z,99.90
2023-03-08T18:39:20.307Z,99.90
2023-03-08T18:41:50.028Z,99.90
2023-03-08T18:44:18.412Z,99.90
2023-03-08T18:46:46.812Z,99.90
2023-03-08T18:49:15.934Z,99.90
2023-03-08T18:51:44.365Z,99.90
2023-03-08T18:54:13.572Z,99.90
2023-03-08T18:56:42.044Z,99.90
2023-03-08T18:59:13.345Z,99.90
2023-03-08T19:01:41.722Z,99.90
2023-03-08T19:04:10.023Z,99.90
2023-03-08T19:06:38.363Z,99.90
2023-03-08T19:09:10.706Z,99.90
2023-03-08T19:11:39.016Z,99.90
2023-03-08T19:14:07.459Z,99.90
2023-03-08T19:16:37.433Z,99.90
2023-03-08T19:19:06.945Z,99.90
2023-03-08T19:21:36.262Z,99.90
2023-03-08T19:24:04.808Z,99.90
2023-03-08T19:26:37.969Z,99.90
2023-03-08T19:29:07.609Z,99.90
2023-03-08T19:31:38.805Z,99.90
2023-03-08T19:34:07.292Z,99.90
2023-03-08T19:36:36.628Z,99.90
2023-03-08T19:39:05.229Z,99.90
2023-03-08T19:41:33.543Z,99.90
2023-03-08T19:44:06.954Z,99.90
2023-03-08T19:46:37.017Z,99.90
2023-03-08T19:49:06.185Z,99.90
2023-03-08T19:51:37.300Z,99.90
2023-03-08T19:54:06.807Z,99.90
2023-03-08T19:56:35.356Z,99.90
2023-03-08T19:59:03.617Z,99.90
2023-03-08T20:01:32.053Z,99.90
2023-03-08T20:04:01.765Z,99.90
2023-03-08T20:06:32.120Z,99.90
2023-03-08T20:09:00.519Z,99.90
2023-03-08T20:11:28.918Z,99.90
2023-03-08T20:13:57.413Z,99.90
2023-03-08T20:16:25.984Z,99.90
2023-03-08T20:18:56.026Z,99.90
2023-03-08T20:21:27.044Z,99.90
2023-03-08T20:23:56.778Z,99.90
2023-03-08T20:26:25.218Z,99.90
2023-03-08T20:28:53.730Z,99.90
2023-03-08T20:31:22.076Z,99.90
2023-03-08T20:33:50.602Z,99.90
2023-03-08T20:36:18.999Z,99.90
2023-03-08T20:38:48.664Z,99.90
2023-03-08T20:41:17.880Z,99.90
2023-03-08T20:43:47.145Z,99.90
2023-03-08T20:46:16.310Z,99.90
2023-03-08T20:48:45.291Z,99.90
2023-03-08T20:51:14.607Z,99.90
2023-03-08T20:53:42.877Z,99.90
2023-03-08T20:56:14.760Z,99.90
2023-03-08T20:58:43.164Z,99.90
2023-03-08T21:01:12.244Z,99.90
2023-03-08T21:03:40.951Z,99.90
2023-03-08T21:06:13.982Z,99.90
2023-03-08T21:08:42.326Z,99.90
2023-03-08T21:11:12.089Z,99.90
2023-03-08T21:13:40.536Z,99.90
2023-03-08T21:16:10.030Z,99.90
2023-03-08T21:18:38.476Z,99.90
2023-03-08T21:21:07.322Z,99.90
2023-03-08T21:23:36.081Z,99.90
2023-03-08T21:26:04.933Z,99.90
2023-03-08T21:28:34.715Z,99.90
2023-03-08T21:31:03.043Z,99.90
2023-03-08T21:33:31.331Z,99.90
2023-03-08T21:35:59.600Z,99.90
2023-03-08T21:38:27.928Z,99.90
2023-03-08T21:40:56.219Z,99.90
2023-03-08T21:43:24.501Z,99.90
2023-03-08T21:45:54.153Z,99.90
2023-03-08T21:48:22.453Z,99.90
2023-03-08T21:50:50.792Z,99.90
2023-03-08T21:53:19.008Z,99.90
2023-03-08T21:55:47.311Z,99.90
2023-03-08T21:58:15.603Z,99.90
2023-03-08T22:00:43.924Z,99.90
2023-03-08T22:03:13.582Z,99.90
2023-03-08T22:05:42.032Z,99.90
2023-03-08T22:08:10.332Z,1.00
2023-03-08T22:10:38.635Z,1.00
2023-03-08T22:13:07.058Z,1.00
2023-03-08T22:15:35.326Z,1.00
2023-03-08T22:18:03.530Z,1.00
2023-03-08T22:20:33.161Z,2.60
2023-03-08T22:23:01.929Z,1.00
2023-03-08T22:25:30.218Z,46.40
2023-03-08T22:27:58.623Z,56.70
2023-03-08T22:30:26.842Z,99.90
2023-03-08T22:32:55.940Z,99.90
2023-03-08T22:35:24.196Z,99.90
2023-03-08T22:37:53.796Z,99.90
2023-03-08T22:40:22.226Z,99.90
2023-03-08T22:42:50.515Z,99.90
2023-03-08T22:45:18.904Z,99.90
2023-03-08T22:47:47.190Z,1.00
2023-03-08T22:50:15.418Z,1.00
2023-03-08T22:52:43.661Z,1.00
2023-03-08T22:55:13.922Z,14.30
2023-03-08T22:57:42.142Z,96.90
2023-03-08T23:00:15.394Z,99.90
2023-03-08T23:02:43.764Z,99.90
2023-03-08T23:05:13.382Z,99.90
2023-03-08T23:07:41.667Z,99.90
2023-03-08T23:10:11.108Z,1.00
2023-03-08T23:12:40.788Z,1.00
2023-03-08T23:15:09.666Z,1.00
2023-03-08T23:17:37.993Z,1.00
2023-03-08T23:20:07.147Z,99.90
2023-03-08T23:22:35.418Z,99.90
2023-03-08T23:25:03.899Z,99.90
2023-03-08T23:27:32.169Z,99.90
2023-03-08T23:30:01.889Z,99.90
2023-03-08T23:32:30.169Z,99.90
2023-03-08T23:34:58.416Z,99.90
2023-03-08T23:37:26.856Z,99.90
2023-03-08T23:39:55.160Z,99.90
2023-03-08T23:42:23.420Z,99.90
2023-03-08T23:44:51.844Z,99.90
2023-03-08T23:47:21.683Z,99.90
2023-03-08T23:49:50.036Z,99.90
2023-03-08T23:52:18.314Z,99.90
2023-03-08T23:54:46.588Z,99.90
2023-03-08T23:57:14.891Z,99.90
2023-03-08T23:59:43.112Z,99.90
